MET'MAP v2.0
soon released !

Expected late october,
this new version will be
more efficient, smarter,
and hosted on a brand new
server x3 powerfull...
...and still free !


Not compatible ?
Try the mobile version !

LOG IN : | Subscribe | Disclaimer | Who is Orbifly ? |
ICAO code :

TAF - EGJA Alderney - 09 Jul 2020 00:46 UTC
Data Sources :     NOAA   


- Airport Elevation : 290 ft
- IATA code : ACI
- No reported NOTAMs.


EGJA - Alderney

Latest METAR recorded : 2015/08/11 07:50 EGJA 110750Z 04008KT 010V070 9999 -RA FEW006 SCT015 15/15 Q1019
TAF TAF EGJA
Valid from the 08 at 15:00 until the 09 at 00:00 UTC


081356Z 0815/0900 26015KT 5000 BR BKN002
TEMPO 0815/0900 2000 -DZ BR BKN001
PROB40
TEMPO 0817/0819 0400 DZ FG BKN000

Source NOAA


MET'MAP, your aeronautical weather chart ! - Copyright ORBIFLY December 2007

Programming & Development : Alexandra Zaïnal
Co-Developer : Marc-Olivier Méhu
Technical & hardware support : Manuel Goepfert
Concept & Financing : Baudouin d'Aumeries